createdAt,value
2019-01-14T00:00:29.690Z,321.27
2019-01-14T00:03:09.708Z,280.40
2019-01-14T00:05:49.889Z,309.93
2019-01-14T00:08:25.480Z,284.00
2019-01-14T00:11:01.041Z,293.70
2019-01-14T00:13:35.299Z,303.57
2019-01-14T00:16:13.593Z,324.90
2019-01-14T00:18:48.909Z,304.07
2019-01-14T00:21:25.059Z,306.43
2019-01-14T00:24:00.192Z,294.57
2019-01-14T00:27:09.744Z,288.27
2019-01-14T00:29:51.599Z,315.53
2019-01-14T00:32:25.973Z,327.20
2019-01-14T00:35:03.782Z,319.97
2019-01-14T00:37:38.424Z,319.27
2019-01-14T00:40:14.729Z,316.07
2019-01-14T00:42:49.308Z,309.23
2019-01-14T00:45:26.986Z,327.10
2019-01-14T00:48:01.459Z,300.37
2019-01-14T00:50:37.677Z,313.83
2019-01-14T00:53:14.769Z,298.97
2019-01-14T00:55:50.811Z,329.77
2019-01-14T00:58:29.948Z,287.10
2019-01-14T01:01:27.248Z,299.13
2019-01-14T01:04:01.139Z,278.10
2019-01-14T01:06:38.081Z,292.40
2019-01-14T01:09:19.974Z,292.97
2019-01-14T01:12:00.438Z,305.83
2019-01-14T01:14:53.918Z,285.82
2019-01-14T01:17:28.280Z,282.40
2019-01-14T01:20:03.007Z,296.75
2019-01-14T01:22:42.454Z,288.23
2019-01-14T01:25:19.454Z,305.03
2019-01-14T01:27:56.471Z,316.80
2019-01-14T01:30:32.036Z,284.60
2019-01-14T01:33:23.023Z,290.57
2019-01-14T01:36:01.132Z,319.10
2019-01-14T01:38:38.057Z,305.35
2019-01-14T01:41:22.456Z,310.15
2019-01-14T01:43:58.092Z,307.10
2019-01-14T01:46:39.235Z,308.07
2019-01-14T01:49:16.764Z,299.90
2019-01-14T01:51:52.724Z,304.53
2019-01-14T01:54:28.065Z,304.77
2019-01-14T01:57:03.153Z,307.83
2019-01-14T01:59:41.115Z,320.83
2019-01-14T02:02:17.774Z,321.43
2019-01-14T02:05:02.052Z,330.27
2019-01-14T02:07:41.269Z,328.40
2019-01-14T02:10:21.280Z,349.70
2019-01-14T02:13:04.244Z,326.62
2019-01-14T02:15:46.973Z,328.80
2019-01-14T02:18:22.677Z,314.10
2019-01-14T02:20:56.804Z,339.10
2019-01-14T02:23:31.584Z,349.90
2019-01-14T02:26:08.203Z,340.10
2019-01-14T02:28:44.542Z,333.37
2019-01-14T02:31:19.345Z,343.53
2019-01-14T02:33:56.181Z,337.90
2019-01-14T02:36:30.569Z,342.15
2019-01-14T02:39:04.758Z,362.30
2019-01-14T02:41:38.753Z,339.70
2019-01-14T02:44:13.400Z,353.13
2019-01-14T02:46:58.744Z,341.65
2019-01-14T02:49:33.737Z,333.82
2019-01-14T02:52:07.523Z,364.50
2019-01-14T02:54:42.243Z,337.63
2019-01-14T02:57:16.184Z,325.00
2019-01-14T02:59:49.798Z,341.13
2019-01-14T03:02:23.916Z,355.40
2019-01-14T03:04:58.646Z,362.13
2019-01-14T03:07:37.238Z,344.93
2019-01-14T03:10:11.830Z,326.90
2019-01-14T03:12:46.205Z,322.40
2019-01-14T03:15:20.399Z,343.53
2019-01-14T03:17:54.194Z,331.60
2019-01-14T03:20:27.800Z,335.00
2019-01-14T03:23:01.290Z,319.97
2019-01-14T03:25:34.890Z,325.55
2019-01-14T03:28:08.500Z,336.23
2019-01-14T03:30:50.946Z,339.90
2019-01-14T03:33:22.947Z,334.02
2019-01-14T03:35:56.561Z,352.30
2019-01-14T03:38:31.394Z,343.00
2019-01-14T03:41:07.734Z,349.23
2019-01-14T03:43:43.081Z,336.40
2019-01-14T03:46:17.351Z,328.60
2019-01-14T03:48:52.264Z,349.45
2019-01-14T03:51:25.847Z,326.62
2019-01-14T03:54:00.591Z,317.67
2019-01-14T03:56:34.359Z,319.57
2019-01-14T03:59:08.022Z,329.13
2019-01-14T04:01:41.753Z,333.43
2019-01-14T04:04:15.583Z,311.00
2019-01-14T04:06:49.667Z,301.67
2019-01-14T04:09:24.649Z,414.80
2019-01-14T04:11:58.396Z,357.23
2019-01-14T04:14:32.033Z,310.60
2019-01-14T04:17:05.733Z,318.77
2019-01-14T04:19:40.416Z,330.07
2019-01-14T04:22:14.184Z,299.63
2019-01-14T04:24:47.789Z,326.60
2019-01-14T04:27:22.716Z,309.80
2019-01-14T04:29:56.561Z,305.95
2019-01-14T04:32:30.002Z,300.83
2019-01-14T04:35:03.341Z,307.57
2019-01-14T04:37:39.735Z,308.17
2019-01-14T04:40:15.549Z,288.33
2019-01-14T04:42:49.942Z,298.33
2019-01-14T04:45:24.426Z,314.57
2019-01-14T04:47:58.336Z,300.20
2019-01-14T04:50:34.631Z,290.97
2019-01-14T04:53:09.087Z,272.80
2019-01-14T04:55:44.011Z,283.23
2019-01-14T04:58:17.834Z,287.10
2019-01-14T05:00:51.592Z,267.63
2019-01-14T05:03:29.068Z,276.90
2019-01-14T05:06:02.747Z,271.43
2019-01-14T05:08:37.703Z,246.43
2019-01-14T05:11:11.966Z,267.40
2019-01-14T05:13:45.733Z,267.27
2019-01-14T05:16:19.788Z,268.57
2019-01-14T05:18:53.502Z,265.00
2019-01-14T05:21:27.283Z,247.90
2019-01-14T05:24:03.266Z,242.35
2019-01-14T05:26:38.147Z,237.40
2019-01-14T05:29:12.164Z,250.87
2019-01-14T05:31:48.783Z,231.00
2019-01-14T05:34:22.530Z,237.37
2019-01-14T05:36:56.086Z,237.50
2019-01-14T05:39:30.725Z,224.07
2019-01-14T05:42:10.001Z,246.37
2019-01-14T05:44:44.697Z,241.10
2019-01-14T05:47:20.878Z,193.57
2019-01-14T05:49:56.004Z,169.22
2019-01-14T05:52:30.756Z,173.78
2019-01-14T05:55:04.290Z,164.00
2019-01-14T05:57:37.876Z,151.82
2019-01-14T06:00:32.518Z,179.40
2019-01-14T06:03:07.142Z,155.67
2019-01-14T06:05:41.258Z,165.92
2019-01-14T06:08:15.034Z,157.47
2019-01-14T06:10:48.673Z,159.33
2019-01-14T06:13:22.570Z,164.53
2019-01-14T06:15:56.258Z,163.03
2019-01-14T06:18:30.105Z,162.50
2019-01-14T06:21:06.987Z,171.07
2019-01-14T06:23:49.286Z,166.00
2019-01-14T06:26:23.178Z,149.67
2019-01-14T06:28:57.206Z,153.40
2019-01-14T06:31:30.714Z,165.27
2019-01-14T06:34:04.701Z,168.67
2019-01-14T06:36:38.385Z,165.33
2019-01-14T06:39:13.199Z,157.87
2019-01-14T06:41:47.850Z,157.80
2019-01-14T06:44:21.871Z,159.75
2019-01-14T06:46:59.631Z,165.23
2019-01-14T06:49:34.169Z,174.05
2019-01-14T06:52:08.923Z,196.13
2019-01-14T06:54:44.011Z,167.23
2019-01-14T06:57:18.482Z,168.83
2019-01-14T06:59:52.229Z,164.50
2019-01-14T07:02:26.099Z,161.87
2019-01-14T07:04:59.811Z,162.12
2019-01-14T07:07:33.550Z,162.43
2019-01-14T07:10:08.590Z,161.27
2019-01-14T07:12:42.100Z,187.13
2019-01-14T07:15:16.908Z,157.12
2019-01-14T07:17:50.749Z,172.20
2019-01-14T07:20:25.803Z,176.13
2019-01-14T07:23:00.454Z,191.97
2019-01-14T07:25:34.791Z,204.40
2019-01-14T07:28:09.008Z,176.80
2019-01-14T07:30:43.181Z,184.53
2019-01-14T07:33:17.334Z,185.40
2019-01-14T07:35:51.611Z,195.87
2019-01-14T07:38:27.257Z,187.03
2019-01-14T07:41:01.156Z,199.53
2019-01-14T07:43:35.823Z,196.72
2019-01-14T07:46:09.920Z,236.50
2019-01-14T07:48:43.991Z,225.87
2019-01-14T07:51:17.862Z,210.90
2019-01-14T07:53:55.787Z,212.50
2019-01-14T07:56:29.540Z,205.90
2019-01-14T07:59:03.170Z,236.10
2019-01-14T08:01:37.440Z,208.80
2019-01-14T08:04:11.305Z,208.03
2019-01-14T08:06:44.762Z,205.33
2019-01-14T08:09:20.127Z,183.12
2019-01-14T08:11:53.741Z,200.73
2019-01-14T08:14:27.235Z,194.52
2019-01-14T08:17:01.030Z,205.12
2019-01-14T08:19:34.706Z,194.33
2019-01-14T08:22:08.436Z,211.03
2019-01-14T08:24:42.480Z,196.50
2019-01-14T08:27:17.115Z,193.20
2019-01-14T08:29:50.877Z,208.97
2019-01-14T08:32:26.025Z,202.77
2019-01-14T08:34:59.876Z,192.47
2019-01-14T08:37:35.807Z,202.85
2019-01-14T08:40:13.210Z,222.70
2019-01-14T08:42:48.090Z,208.30
2019-01-14T08:45:24.796Z,216.83
2019-01-14T08:47:58.683Z,222.73
2019-01-14T08:50:33.102Z,213.93
2019-01-14T08:53:07.732Z,214.90
2019-01-14T08:55:41.414Z,220.23
2019-01-14T08:58:15.416Z,211.07
2019-01-14T09:00:49.061Z,210.77
2019-01-14T09:03:23.197Z,235.65
2019-01-14T09:05:57.623Z,221.30
2019-01-14T09:08:31.260Z,223.57
2019-01-14T09:11:05.986Z,217.90
2019-01-14T09:13:43.514Z,217.17
2019-01-14T09:16:17.559Z,220.00
2019-01-14T09:18:53.273Z,235.37
2019-01-14T09:21:28.400Z,219.67
2019-01-14T09:24:02.755Z,221.20
2019-01-14T09:26:39.034Z,229.47
2019-01-14T09:29:15.328Z,231.87
2019-01-14T09:31:52.968Z,232.73
2019-01-14T09:34:27.762Z,229.60
2019-01-14T09:37:03.612Z,234.27
2019-01-14T09:39:38.174Z,225.77
2019-01-14T09:42:16.726Z,224.90
2019-01-14T09:44:51.272Z,219.90
2019-01-14T09:47:28.126Z,226.67
2019-01-14T09:50:02.675Z,220.57
2019-01-14T09:52:37.324Z,224.03
2019-01-14T09:55:13.799Z,215.90
2019-01-14T09:57:50.952Z,232.20
2019-01-14T10:00:28.227Z,230.53
2019-01-14T10:03:04.385Z,217.30
2019-01-14T10:05:39.304Z,222.75
2019-01-14T10:08:14.238Z,228.47
2019-01-14T10:10:49.772Z,223.30
2019-01-14T10:13:24.367Z,224.17
2019-01-14T10:15:59.424Z,234.40
2019-01-14T10:18:33.745Z,226.43
2019-01-14T10:21:08.497Z,238.37
2019-01-14T10:23:44.345Z,227.37
2019-01-14T10:26:19.327Z,217.93
2019-01-14T10:28:54.700Z,234.17
2019-01-14T10:31:29.295Z,226.10
2019-01-14T10:34:04.067Z,216.63
2019-01-14T10:36:38.739Z,223.72
2019-01-14T10:39:17.578Z,215.73
2019-01-14T10:41:52.202Z,222.77
2019-01-14T10:44:27.108Z,220.42
2019-01-14T10:47:02.686Z,236.90
2019-01-14T10:49:38.224Z,239.15
2019-01-14T10:52:12.854Z,227.30
2019-01-14T10:54:48.564Z,251.07
2019-01-14T10:57:23.179Z,243.30
2019-01-14T10:59:59.318Z,250.60
2019-01-14T11:02:33.761Z,254.90
2019-01-14T11:05:10.049Z,247.67
2019-01-14T11:07:45.578Z,251.70
2019-01-14T11:10:20.906Z,277.23
2019-01-14T11:12:56.106Z,245.67
2019-01-14T11:15:30.062Z,281.83
2019-01-14T11:18:07.073Z,265.97
2019-01-14T11:20:43.542Z,241.17
2019-01-14T11:23:18.786Z,275.07
2019-01-14T11:25:52.839Z,258.33
2019-01-14T11:28:30.303Z,271.03
2019-01-14T11:31:06.381Z,276.82
2019-01-14T11:33:41.971Z,279.90
2019-01-14T11:36:16.976Z,273.70
2019-01-14T11:38:52.991Z,251.00
2019-01-14T11:41:30.271Z,264.70
2019-01-14T11:44:05.635Z,252.93
2019-01-14T11:46:40.068Z,273.63
2019-01-14T11:49:17.014Z,284.43
2019-01-14T11:51:52.952Z,292.00
2019-01-14T11:54:30.249Z,267.23
2019-01-14T11:57:08.840Z,265.00
2019-01-14T11:59:44.046Z,272.07
2019-01-14T12:02:18.919Z,284.60
2019-01-14T12:04:54.946Z,281.77
2019-01-14T12:07:31.199Z,302.10
2019-01-14T12:10:07.388Z,283.75
2019-01-14T12:12:43.094Z,261.68
2019-01-14T12:15:23.510Z,305.37
2019-01-14T12:18:00.128Z,289.70
2019-01-14T12:20:35.345Z,297.23
2019-01-14T12:23:10.773Z,306.93
2019-01-14T12:25:45.759Z,283.60
2019-01-14T12:28:20.929Z,286.90
2019-01-14T12:30:55.754Z,301.15
2019-01-14T12:33:31.005Z,309.70
2019-01-14T12:36:08.368Z,318.67
2019-01-14T12:38:43.232Z,289.00
2019-01-14T12:41:19.108Z,288.35
2019-01-14T12:43:54.406Z,273.25
2019-01-14T12:46:32.052Z,288.33
2019-01-14T12:49:10.923Z,304.93
2019-01-14T12:51:46.190Z,248.40
2019-01-14T12:54:21.660Z,238.30
2019-01-14T12:56:56.677Z,229.17
2019-01-14T12:59:34.873Z,232.30
2019-01-14T13:02:11.251Z,242.80
2019-01-14T13:04:49.174Z,224.80
2019-01-14T13:07:24.374Z,234.20
2019-01-14T13:10:16.339Z,253.45
2019-01-14T13:12:51.835Z,235.80
2019-01-14T13:15:30.292Z,236.60
2019-01-14T13:18:06.750Z,239.27
2019-01-14T13:20:43.604Z,236.63
2019-01-14T13:23:25.679Z,248.13
2019-01-14T13:26:01.469Z,223.50
2019-01-14T13:31:33.950Z,243.27
2019-01-14T13:34:11.617Z,238.47
2019-01-14T13:36:46.366Z,251.90
2019-01-14T13:39:21.548Z,242.10
2019-01-14T13:41:56.805Z,274.70
2019-01-14T13:44:31.855Z,250.17
2019-01-14T13:47:07.488Z,271.43
2019-01-14T13:49:42.380Z,277.53
2019-01-14T13:52:18.362Z,272.30
2019-01-14T13:54:53.180Z,259.60
2019-01-14T13:57:27.727Z,258.13
2019-01-14T14:00:02.094Z,242.27
2019-01-14T14:02:40.244Z,238.40
2019-01-14T14:05:17.912Z,212.23
2019-01-14T14:07:55.543Z,206.10
2019-01-14T14:10:31.824Z,183.10
2019-01-14T14:13:06.442Z,197.53
2019-01-14T14:15:58.917Z,183.37
2019-01-14T14:18:33.653Z,197.43
2019-01-14T14:21:09.808Z,155.93
2019-01-14T14:26:10.864Z,135.13
2019-01-14T14:39:36.687Z,80.43
2019-01-14T14:42:10.836Z,91.33
2019-01-14T14:44:44.774Z,87.90
2019-01-14T14:47:19.219Z,66.43
2019-01-14T14:49:56.828Z,61.53
2019-01-14T14:52:34.479Z,72.23
2019-01-14T14:55:10.005Z,58.00
2019-01-14T14:57:46.374Z,57.53
2019-01-14T15:00:25.153Z,62.73
2019-01-14T15:02:59.260Z,59.30
2019-01-14T15:05:33.234Z,49.30
2019-01-14T15:08:12.265Z,48.77
2019-01-14T15:10:46.364Z,57.60
2019-01-14T15:13:20.463Z,52.27
2019-01-14T15:15:54.547Z,48.37
2019-01-14T15:18:28.493Z,50.57
2019-01-14T15:21:05.873Z,55.23
2019-01-14T15:23:39.815Z,49.33
2019-01-14T15:26:15.828Z,57.47
2019-01-14T15:28:49.740Z,48.05
2019-01-14T15:31:26.703Z,58.40
2019-01-14T15:34:01.670Z,53.50
2019-01-14T15:36:40.987Z,56.63
2019-01-14T15:39:16.306Z,51.50
2019-01-14T15:41:52.379Z,46.73
2019-01-14T15:44:25.985Z,44.13
2019-01-14T15:47:01.292Z,55.67
2019-01-14T15:49:38.008Z,55.33
2019-01-14T15:52:12.011Z,47.93
2019-01-14T15:54:50.110Z,38.70
2019-01-14T15:57:23.805Z,52.98
2019-01-14T15:59:57.635Z,61.17
2019-01-14T16:02:31.556Z,59.70
2019-01-14T16:05:07.925Z,57.00
2019-01-14T16:07:42.577Z,55.73
2019-01-14T16:10:24.188Z,56.27
2019-01-14T16:12:58.207Z,59.58
2019-01-14T16:15:32.132Z,57.50
2019-01-14T16:18:06.200Z,59.63
2019-01-14T16:20:42.978Z,56.30
2019-01-14T16:23:16.825Z,56.93
2019-01-14T16:25:51.359Z,66.93
2019-01-14T16:28:25.358Z,62.83
2019-01-14T16:30:59.125Z,59.73
2019-01-14T16:33:36.233Z,65.07
2019-01-14T16:36:10.299Z,51.30
2019-01-14T16:38:44.164Z,65.07
2019-01-14T16:41:21.152Z,60.60
2019-01-14T16:43:56.086Z,62.40
2019-01-14T16:46:30.700Z,60.53
2019-01-14T16:49:04.712Z,65.13
2019-01-14T16:51:38.408Z,64.58
2019-01-14T16:54:14.990Z,62.30
2019-01-14T16:56:49.370Z,59.90
2019-01-14T16:59:24.019Z,63.52
2019-01-14T17:01:57.664Z,59.27
2019-01-14T17:04:31.654Z,61.33
2019-01-14T17:07:05.711Z,68.47
2019-01-14T17:09:39.653Z,65.40
2019-01-14T17:12:13.780Z,60.93
2019-01-14T17:14:47.608Z,60.63
2019-01-14T17:17:22.279Z,72.90
2019-01-14T17:19:56.256Z,54.33
2019-01-14T17:22:29.742Z,63.33
2019-01-14T17:25:04.029Z,54.97
2019-01-14T17:27:37.773Z,61.17
2019-01-14T17:30:25.980Z,59.70
2019-01-14T17:33:03.235Z,60.17
2019-01-14T17:36:29.555Z,76.40
2019-01-14T17:39:54.858Z,64.70
2019-01-14T17:43:20.432Z,57.33
2019-01-14T17:46:46.918Z,63.03
2019-01-14T17:50:12.082Z,60.70
2019-01-14T17:53:39.598Z,77.63
2019-01-14T17:57:05.061Z,57.40
2019-01-14T18:00:29.973Z,70.30
2019-01-14T18:03:55.485Z,61.70
2019-01-14T18:07:22.480Z,60.04
2019-01-14T18:09:55.458Z,61.23
2019-01-14T18:12:28.632Z,57.98
2019-01-14T18:15:01.831Z,72.40
2019-01-14T18:17:35.023Z,70.80
2019-01-14T18:20:12.100Z,58.10
2019-01-14T18:22:45.183Z,59.23
2019-01-14T18:25:18.854Z,64.70
2019-01-14T18:27:51.808Z,52.93
2019-01-14T18:30:24.419Z,68.57
2019-01-14T18:32:57.302Z,54.40
2019-01-14T18:35:30.254Z,61.23
2019-01-14T18:38:03.197Z,62.13
2019-01-14T18:40:36.065Z,55.63
2019-01-14T18:43:08.887Z,52.73
2019-01-14T18:45:41.606Z,54.43
2019-01-14T18:48:14.379Z,44.40
2019-01-14T18:50:46.917Z,60.73
2019-01-14T18:53:19.553Z,49.30
2019-01-14T18:55:58.241Z,44.90
2019-01-14T18:58:30.985Z,47.17
2019-01-14T19:01:03.854Z,47.07
2019-01-14T19:03:36.541Z,55.47
2019-01-14T19:06:09.489Z,53.40
2019-01-14T19:08:42.344Z,48.47
2019-01-14T19:11:15.505Z,35.70
2019-01-14T19:13:48.210Z,41.87
2019-01-14T19:16:20.809Z,41.17
2019-01-14T19:18:54.013Z,48.85
2019-01-14T19:21:26.772Z,42.00
2019-01-14T19:24:09.179Z,48.63
2019-01-14T19:26:42.864Z,54.43
2019-01-14T19:29:15.745Z,41.23
2019-01-14T19:31:48.844Z,39.63
2019-01-14T19:34:21.544Z,31.63
2019-01-14T19:36:54.399Z,46.75
2019-01-14T19:39:27.225Z,36.37
2019-01-14T19:42:00.158Z,28.37
2019-01-14T19:44:32.815Z,38.30
2019-01-14T19:47:05.934Z,30.60
2019-01-14T19:49:39.984Z,33.70
2019-01-14T19:52:14.052Z,35.27
2019-01-14T19:54:47.072Z,34.43
2019-01-14T19:57:19.929Z,28.40
2019-01-14T19:59:53.147Z,37.13
2019-01-14T20:02:25.611Z,17.57
2019-01-14T20:04:58.005Z,24.87
2019-01-14T20:07:30.792Z,29.20
2019-01-14T20:10:03.667Z,20.60
2019-01-14T20:12:37.690Z,20.32
2019-01-14T20:15:19.684Z,28.50
2019-01-14T20:17:53.273Z,20.30
2019-01-14T20:20:26.298Z,13.50
2019-01-14T20:22:59.699Z,21.00
2019-01-14T20:25:32.800Z,25.07
2019-01-14T20:28:06.169Z,18.33
2019-01-14T20:30:39.458Z,25.63
2019-01-14T20:33:13.091Z,23.73
2019-01-14T20:35:47.008Z,19.45
2019-01-14T20:38:20.568Z,14.70
2019-01-14T20:40:54.415Z,16.13
2019-01-14T20:43:27.886Z,13.30
2019-01-14T20:46:01.573Z,14.13
2019-01-14T20:48:35.067Z,13.70
2019-01-14T20:51:09.269Z,20.63
2019-01-14T20:53:44.598Z,13.93
2019-01-14T20:56:18.369Z,25.83
2019-01-14T20:58:51.825Z,18.35
2019-01-14T21:01:49.443Z,21.05
2019-01-14T21:04:23.464Z,22.17
2019-01-14T21:06:57.958Z,16.10
2019-01-14T21:09:31.803Z,13.10
2019-01-14T21:12:05.703Z,17.40
2019-01-14T21:14:43.763Z,28.70
2019-01-14T21:17:18.746Z,16.70
2019-01-14T21:19:53.647Z,24.47
2019-01-14T21:22:27.551Z,16.97
2019-01-14T21:25:00.974Z,19.50
2019-01-14T21:27:50.707Z,20.47
2019-01-14T21:30:26.826Z,17.93
2019-01-14T21:33:00.742Z,16.37
2019-01-14T21:35:34.198Z,17.15
2019-01-14T21:38:08.074Z,10.20
2019-01-14T21:40:41.736Z,13.23
2019-01-14T21:43:15.705Z,14.20
2019-01-14T21:45:49.917Z,19.27
2019-01-14T21:48:25.560Z,15.13
2019-01-14T21:51:02.590Z,14.67
2019-01-14T21:53:34.967Z,10.13
2019-01-14T21:56:08.621Z,15.32
2019-01-14T21:58:46.562Z,23.67
2019-01-14T22:01:20.316Z,13.43
2019-01-14T22:03:54.879Z,12.58
2019-01-14T22:06:28.629Z,16.82
2019-01-14T22:09:02.803Z,14.03
2019-01-14T22:11:40.273Z,15.53
2019-01-14T22:14:14.273Z,13.57
2019-01-14T22:16:49.376Z,11.33
2019-01-14T22:19:24.316Z,16.50
2019-01-14T22:21:58.150Z,18.27
2019-01-14T22:24:31.870Z,12.73
2019-01-14T22:27:05.983Z,12.80
2019-01-14T22:29:52.024Z,13.07
2019-01-14T22:32:26.305Z,12.87
2019-01-14T22:35:01.424Z,20.40
2019-01-14T22:37:37.208Z,18.90
2019-01-14T22:40:12.514Z,14.30
2019-01-14T22:42:46.335Z,15.73
2019-01-14T22:45:21.146Z,17.27
2019-01-14T22:47:54.967Z,15.53
2019-01-14T22:50:29.835Z,18.50
2019-01-14T22:53:03.663Z,16.62
2019-01-14T22:55:57.312Z,15.83
2019-01-14T22:58:31.026Z,14.43
2019-01-14T23:01:10.304Z,16.67
2019-01-14T23:03:43.391Z,17.10
2019-01-14T23:06:17.062Z,22.27
2019-01-14T23:08:51.386Z,27.33
2019-01-14T23:11:27.521Z,16.40
2019-01-14T23:14:03.192Z,19.80
2019-01-14T23:16:39.798Z,22.87
2019-01-14T23:19:14.159Z,16.53
2019-01-14T23:21:49.046Z,16.67
2019-01-14T23:24:23.492Z,21.97
2019-01-14T23:26:58.179Z,23.07
2019-01-14T23:29:36.808Z,21.97
2019-01-14T23:32:11.918Z,15.53
2019-01-14T23:34:47.464Z,29.97
2019-01-14T23:37:22.281Z,23.12
2019-01-14T23:39:56.550Z,27.60
2019-01-14T23:42:30.481Z,19.15
2019-01-14T23:45:30.430Z,21.20
2019-01-14T23:48:05.169Z,23.98
2019-01-14T23:50:40.185Z,24.13
2019-01-14T23:53:15.094Z,21.30
2019-01-14T23:55:49.037Z,16.47
2019-01-14T23:58:43.196Z,23.53
